Time;durP1;ratioP1;P1;durP2;ratioP2;P2;SDS_P1;SDS_P2;PMS_P1;PMS_P2;Temp;Humidity;BMP_temperature;BMP_pressure;BME280_temperature;BME280_humidity;BME280_pressure;Samples;Min_cycle;Max_cycle;Signal;HPM_P1;HPM_P2
2021/07/17 00:00:49;;;;;;;19.40;7.07;;;19.20;97.80;;;;;;4229788;28;20070;-77
2021/07/17 00:02:54;;;;;;;21.88;7.57;;;19.20;98.10;;;;;;4232501;28;20052;-77
2021/07/17 00:04:57;;;;;;;24.80;7.22;;;19.10;98.10;;;;;;4231890;28;20077;-75
2021/07/17 00:07:00;;;;;;;20.80;8.35;;;19.00;98.40;;;;;;4232486;28;20039;-76
2021/07/17 00:09:05;;;;;;;21.92;6.95;;;19.00;98.50;;;;;;4231475;28;20062;-75
2021/07/17 00:11:08;;;;;;;18.95;7.60;;;18.90;98.70;;;;;;4230383;28;20533;-74
2021/07/17 00:13:11;;;;;;;20.67;7.45;;;18.90;98.90;;;;;;4229838;28;20059;-74
2021/07/17 00:15:16;;;;;;;17.83;7.85;;;18.80;98.90;;;;;;4231393;28;20052;-75
2021/07/17 00:17:19;;;;;;;23.33;7.95;;;18.80;99.30;;;;;;4230877;28;20051;-75
2021/07/17 00:19:23;;;;;;;19.67;7.90;;;18.70;99.30;;;;;;4230656;28;20055;-74
2021/07/17 00:21:26;;;;;;;21.85;7.43;;;18.60;99.50;;;;;;4230928;28;20064;-74
2021/07/17 00:23:29;;;;;;;26.98;8.65;;;18.60;99.70;;;;;;4231845;28;20109;-74
2021/07/17 00:25:32;;;;;;;23.05;8.07;;;18.70;99.70;;;;;;4233013;28;20530;-76
2021/07/17 00:27:35;;;;;;;27.83;9.20;;;18.60;99.70;;;;;;4234471;28;20056;-76
2021/07/17 00:29:38;;;;;;;28.13;8.70;;;18.50;99.90;;;;;;4235097;28;20074;-76
2021/07/17 00:31:41;;;;;;;21.33;8.07;;;18.40;99.90;;;;;;4231906;28;20048;-76
2021/07/17 00:33:44;;;;;;;26.60;9.32;;;18.60;99.70;;;;;;4231365;28;20058;-75
2021/07/17 00:35:49;;;;;;;21.88;8.40;;;18.60;99.90;;;;;;4212456;28;20459;-75
2021/07/17 00:37:52;;;;;;;30.98;9.50;;;18.50;99.90;;;;;;4229921;28;20058;-73
2021/07/17 00:39:55;;;;;;;25.05;8.88;;;18.60;99.90;;;;;;4229303;28;20500;-72
2021/07/17 00:41:58;;;;;;;23.98;8.20;;;18.50;99.90;;;;;;4229984;28;20105;-72
2021/07/17 00:44:01;;;;;;;28.92;8.15;;;18.70;99.80;;;;;;4229979;28;20056;-72
2021/07/17 00:46:04;;;;;;;22.30;8.10;;;18.70;99.40;;;;;;4229682;28;20453;-74
2021/07/17 00:48:07;;;;;;;24.52;8.60;;;18.60;99.90;;;;;;4230301;28;20063;-73
2021/07/17 00:50:12;;;;;;;33.60;9.68;;;18.60;99.90;;;;;;4232350;28;20052;-76
2021/07/17 00:52:16;;;;;;;;;;;18.50;99.90;;;;;;4232192;28;20385;-72
2021/07/17 00:54:19;;;;;;;21.98;8.50;;;18.50;99.90;;;;;;4231306;28;20387;-76
2021/07/17 00:56:25;;;;;;;33.10;9.73;;;18.50;99.90;;;;;;4232053;28;20058;-76
2021/07/17 00:58:32;;;;;;;25.58;8.88;;;18.50;99.90;;;;;;4212759;28;20462;-72
2021/07/17 01:00:35;;;;;;;28.55;9.65;;;18.50;99.90;;;;;;4229998;28;20074;-74
2021/07/17 01:02:40;;;;;;;25.60;9.25;;;18.40;99.90;;;;;;4230589;28;20082;-75
2021/07/17 01:04:44;;;;;;;26.65;8.88;;;18.40;99.90;;;;;;4230070;28;20484;-73
2021/07/17 01:06:48;;;;;;;24.88;8.35;;;18.30;99.90;;;;;;4230416;28;20071;-74
2021/07/17 01:08:52;;;;;;;29.07;8.93;;;18.50;99.90;;;;;;4230671;28;20500;-74
2021/07/17 01:10:55;;;;;;;21.25;8.15;;;18.50;99.90;;;;;;4230773;28;20055;-74
2021/07/17 01:12:58;;;;;;;29.88;10.45;;;18.50;99.90;;;;;;4230890;28;20059;-74
2021/07/17 01:15:02;;;;;;;26.85;9.85;;;18.30;99.90;;;;;;4229455;28;20059;-72
2021/07/17 01:17:05;;;;;;;28.00;9.88;;;18.30;99.90;;;;;;4229419;28;20515;-72
2021/07/17 01:19:11;;;;;;;20.63;9.15;;;18.30;99.90;;;;;;4228765;28;20064;-72
2021/07/17 01:21:17;;;;;;;27.50;9.40;;;18.20;99.90;;;;;;4228655;28;20060;-75
2021/07/17 01:23:21;;;;;;;30.73;9.73;;;18.20;99.90;;;;;;4229109;28;20063;-76
2021/07/17 01:25:26;;;;;;;27.65;9.32;;;18.20;99.90;;;;;;4231984;28;20139;-76
2021/07/17 01:27:28;;;;;;;;;;;18.30;99.90;;;;;;4233762;28;20052;-75
2021/07/17 01:29:33;;;;;;;23.35;9.10;;;18.20;99.90;;;;;;4233889;28;20482;-75
2021/07/17 01:31:36;;;;;;;28.10;10.70;;;18.20;99.90;;;;;;4233903;28;20043;-76
2021/07/17 01:33:40;;;;;;;31.55;10.00;;;18.20;99.90;;;;;;4232209;28;20052;-75
2021/07/17 01:35:44;;;;;;;28.20;9.30;;;18.20;99.90;;;;;;4231824;28;20051;-74
2021/07/17 01:37:48;;;;;;;27.40;10.17;;;18.30;99.90;;;;;;4231827;28;20055;-74
2021/07/17 01:39:52;;;;;;;36.10;10.15;;;18.40;99.90;;;;;;4231378;28;20062;-73
2021/07/17 01:41:55;;;;;;;29.45;10.38;;;18.30;99.90;;;;;;4231354;28;20101;-72
2021/07/17 01:43:58;;;;;;;21.00;9.93;;;18.40;99.90;;;;;;4232108;28;20415;-74
2021/07/17 01:46:02;;;;;;;21.15;9.40;;;18.20;99.90;;;;;;4231728;28;20081;-74
2021/07/17 01:48:06;;;;;;;22.98;10.82;;;18.20;99.90;;;;;;4231433;28;20139;-73
2021/07/17 01:50:10;;;;;;;23.33;9.30;;;18.10;99.90;;;;;;4231650;28;20403;-73
2021/07/17 01:52:13;;;;;;;28.45;9.35;;;18.20;99.90;;;;;;4231059;28;20062;-74
2021/07/17 01:54:17;;;;;;;30.63;11.10;;;18.50;99.90;;;;;;4231313;28;20074;-74
2021/07/17 01:56:20;;;;;;;28.13;10.48;;;18.40;99.90;;;;;;4230947;28;20055;-73
2021/07/17 01:58:23;;;;;;;27.00;10.30;;;18.30;99.90;;;;;;4231111;28;20459;-73
2021/07/17 02:00:27;;;;;;;30.05;10.52;;;18.40;99.90;;;;;;4231003;28;20067;-73
2021/07/17 02:02:30;;;;;;;33.33;9.98;;;18.40;99.90;;;;;;4197688;28;20401;-72
2021/07/17 02:04:34;;;;;;;32.90;10.27;;;18.30;99.90;;;;;;4197877;28;20049;-74
2021/07/17 02:06:37;;;;;;;32.50;11.75;;;18.30;99.90;;;;;;4197595;28;20060;-74
2021/07/17 02:08:41;;;;;;;32.50;11.40;;;18.20;99.90;;;;;;4197853;28;20052;-73
2021/07/17 02:10:45;;;;;;;28.10;10.27;;;18.20;99.90;;;;;;4198136;28;20513;-72
2021/07/17 02:13:00;;;;;;;27.58;11.40;;;18.30;99.90;;;;;;4202466;28;20060;-72
2021/07/17 02:15:04;;;;;;;27.50;11.23;;;18.20;99.90;;;;;;4201329;28;20064;-71
2021/07/17 02:17:08;;;;;;;29.38;10.77;;;18.20;99.90;;;;;;4197262;28;20469;-72
2021/07/17 02:19:17;;;;;;;34.65;10.95;;;18.30;99.90;;;;;;4197061;28;20064;-72
2021/07/17 02:21:21;;;;;;;34.72;11.00;;;18.30;99.90;;;;;;4197116;28;20056;-71
2021/07/17 02:23:23;;;;;;;27.33;11.48;;;18.50;99.90;;;;;;4196049;28;20135;-72
2021/07/17 02:25:26;;;;;;;26.08;11.15;;;18.40;99.90;;;;;;4197398;28;20095;-74
2021/07/17 02:27:31;;;;;;;30.45;11.38;;;18.40;99.90;;;;;;4196770;28;20063;-73
2021/07/17 02:29:34;;;;;;;32.40;11.57;;;18.40;99.90;;;;;;4197234;28;20060;-72
2021/07/17 02:31:37;;;;;;;30.92;11.93;;;18.40;99.90;;;;;;4196677;28;20069;-72
2021/07/17 02:33:40;;;;;;;25.63;11.73;;;18.20;99.90;;;;;;4197356;28;20052;-72
2021/07/17 02:35:43;;;;;;;32.38;11.80;;;18.00;99.90;;;;;;4197555;28;20060;-72
2021/07/17 02:37:46;;;;;;;28.65;11.18;;;18.00;99.90;;;;;;4197731;28;20059;-71
2021/07/17 02:39:51;;;;;;;32.90;12.15;;;18.00;99.90;;;;;;4198336;28;20409;-73
2021/07/17 02:41:54;;;;;;;30.65;11.80;;;18.00;99.90;;;;;;4201346;28;20059;-74
2021/07/17 02:44:02;;;;;;;29.20;11.32;;;18.10;99.90;;;;;;4201741;28;20104;-80
2021/07/17 02:46:05;;;;;;;32.75;12.13;;;18.20;99.90;;;;;;4199213;28;20153;-74
2021/07/17 02:48:08;;;;;;;33.78;12.32;;;18.20;99.90;;;;;;4198174;28;20118;-73
2021/07/17 02:50:12;;;;;;;31.77;11.88;;;18.10;99.90;;;;;;4197070;28;20060;-74
2021/07/17 02:52:15;;;;;;;29.13;12.23;;;18.10;99.90;;;;;;4196549;28;20405;-73
2021/07/17 02:54:18;;;;;;;32.88;12.25;;;18.20;99.90;;;;;;4196716;28;20041;-74
2021/07/17 02:56:21;;;;;;;37.58;12.32;;;18.20;99.90;;;;;;4197138;28;20053;-73
2021/07/17 02:58:24;;;;;;;32.65;12.35;;;18.20;99.90;;;;;;4196566;28;20059;-72
2021/07/17 03:00:33;;;;;;;36.83;13.32;;;18.30;99.90;;;;;;4196756;28;20087;-74
2021/07/17 03:02:36;;;;;;;29.90;12.13;;;18.10;99.90;;;;;;4230026;28;20048;-76
2021/07/17 03:04:39;;;;;;;30.95;12.90;;;18.00;99.90;;;;;;4229936;28;20056;-73
2021/07/17 03:06:42;;;;;;;29.92;13.00;;;18.10;99.90;;;;;;4230082;28;20403;-74
2021/07/17 03:08:45;;;;;;;36.67;14.25;;;18.10;99.90;;;;;;4229921;28;20066;-72
2021/07/17 03:10:48;;;;;;;38.60;13.43;;;17.80;99.90;;;;;;4229665;28;20063;-74
2021/07/17 03:12:51;;;;;;;40.08;14.55;;;17.80;99.90;;;;;;4212242;28;20110;-74
2021/07/17 03:14:54;;;;;;;32.85;13.98;;;17.70;99.90;;;;;;4229798;28;20055;-74
2021/07/17 03:17:00;;;;;;;28.52;12.93;;;17.60;99.90;;;;;;4230058;28;20055;-73
2021/07/17 03:19:02;;;;;;;;;;;17.70;99.90;;;;;;4230476;28;20047;-72
2021/07/17 03:21:05;;;;;;;36.17;14.20;;;17.70;99.90;;;;;;4229681;28;19951;-72
2021/07/17 03:23:08;;;;;;;34.92;13.40;;;17.60;99.90;;;;;;4229427;28;20253;-73
2021/07/17 03:25:12;;;;;;;31.40;13.85;;;17.50;99.90;;;;;;4229557;28;20082;-73
2021/07/17 03:27:15;;;;;;;34.83;13.35;;;17.50;99.90;;;;;;4229474;28;20105;-71
2021/07/17 03:29:18;;;;;;;40.10;14.38;;;17.40;99.90;;;;;;4229749;28;20051;-72
2021/07/17 03:31:28;;;;;;;29.83;13.52;;;17.40;99.90;;;;;;4230469;28;20071;-72
2021/07/17 03:33:33;;;;;;;42.15;14.40;;;17.20;99.90;;;;;;4231230;28;20056;-74
2021/07/17 03:35:36;;;;;;;31.27;13.50;;;17.30;99.90;;;;;;4229996;28;20051;-71
2021/07/17 03:37:39;;;;;;;33.40;13.80;;;17.30;99.90;;;;;;4230009;28;20059;-70
2021/07/17 03:39:42;;;;;;;33.38;13.30;;;17.40;99.90;;;;;;4213460;28;20051;-72
2021/07/17 03:41:45;;;;;;;31.02;13.93;;;17.40;99.90;;;;;;4236087;28;20059;-74
2021/07/17 03:43:48;;;;;;;35.65;13.48;;;17.20;99.90;;;;;;4235958;28;20058;-73
2021/07/17 03:45:51;;;;;;;40.17;14.20;;;17.30;99.90;;;;;;4234635;28;20054;-71
2021/07/17 03:47:54;;;;;;;31.35;13.50;;;17.10;99.90;;;;;;4232667;28;20122;-75
2021/07/17 03:49:59;;;;;;;35.80;13.77;;;17.30;99.90;;;;;;4236225;28;20101;-73
2021/07/17 03:52:02;;;;;;;37.88;14.32;;;17.30;99.90;;;;;;4239046;28;20047;-72
2021/07/17 03:54:05;;;;;;;37.13;13.27;;;17.30;99.90;;;;;;4239101;28;20052;-72
2021/07/17 03:56:08;;;;;;;39.08;14.50;;;17.40;99.90;;;;;;4236327;28;20130;-72
2021/07/17 03:58:11;;;;;;;37.70;13.30;;;17.40;99.90;;;;;;4232027;28;20082;-71
2021/07/17 04:00:16;;;;;;;36.13;14.25;;;17.60;99.90;;;;;;4211758;28;20086;-72
2021/07/17 04:02:19;;;;;;;35.47;14.13;;;17.60;99.90;;;;;;4229295;28;20406;-73
2021/07/17 04:04:22;;;;;;;32.20;13.13;;;17.60;99.90;;;;;;4229500;28;20070;-72
2021/07/17 04:06:27;;;;;;;37.15;14.35;;;17.70;99.90;;;;;;4229059;28;20055;-73
2021/07/17 04:08:30;;;;;;;40.50;14.73;;;17.50;99.90;;;;;;4229243;28;20055;-72
2021/07/17 04:10:33;;;;;;;41.38;14.05;;;17.60;99.90;;;;;;4229084;28;20404;-72
2021/07/17 04:12:36;;;;;;;37.03;13.63;;;17.70;99.90;;;;;;4229103;28;20051;-71
2021/07/17 04:14:39;;;;;;;41.03;14.35;;;17.80;99.90;;;;;;4229055;28;20060;-71
2021/07/17 04:16:43;;;;;;;44.05;15.02;;;17.70;99.90;;;;;;4228957;28;20058;-72
2021/07/17 04:18:46;;;;;;;31.75;13.80;;;17.60;99.90;;;;;;4229091;28;20055;-75
2021/07/17 04:20:49;;;;;;;42.28;12.45;;;17.70;99.90;;;;;;4230014;28;20078;-75
2021/07/17 04:22:53;;;;;;;32.45;12.30;;;17.80;99.90;;;;;;4212281;28;20439;-76
2021/07/17 04:24:56;;;;;;;31.95;12.77;;;17.90;99.90;;;;;;4230059;28;20052;-75
2021/07/17 04:26:59;;;;;;;31.42;12.60;;;17.90;99.90;;;;;;4229981;28;20055;-75
2021/07/17 04:29:02;;;;;;;42.00;13.63;;;18.00;99.90;;;;;;4229462;28;20062;-73
2021/07/17 04:31:05;;;;;;;36.28;12.80;;;18.00;99.90;;;;;;4228890;28;20051;-74
2021/07/17 04:33:08;;;;;;;34.33;13.10;;;17.90;99.90;;;;;;4228603;28;20052;-72
2021/07/17 04:35:12;;;;;;;34.15;13.68;;;17.80;99.90;;;;;;4233460;28;20517;-76
2021/07/17 04:37:16;;;;;;;39.28;13.57;;;17.80;99.90;;;;;;4233208;28;20507;-76
2021/07/17 04:39:20;;;;;;;31.90;12.57;;;17.80;99.90;;;;;;4233140;28;20055;-76
2021/07/17 04:41:23;;;;;;;36.35;12.63;;;17.90;99.90;;;;;;4233161;28;20059;-75
2021/07/17 04:43:27;;;;;;;30.17;11.95;;;18.00;99.90;;;;;;4229746;28;20536;-73
2021/07/17 04:45:32;;;;;;;30.45;11.30;;;18.10;99.90;;;;;;4231703;28;20520;-75
2021/07/17 04:47:35;;;;;;;38.72;11.70;;;18.20;99.90;;;;;;4232205;28;20052;-75
2021/07/17 04:49:39;;;;;;;37.13;12.45;;;18.20;99.90;;;;;;4232536;28;20052;-77
2021/07/17 04:51:42;;;;;;;36.75;13.02;;;18.10;99.90;;;;;;4216974;28;20156;-77
2021/07/17 04:53:45;;;;;;;31.70;11.63;;;18.10;99.90;;;;;;4236502;28;20056;-77
2021/07/17 04:55:50;;;;;;;33.83;12.15;;;18.10;99.90;;;;;;4235626;28;20048;-74
2021/07/17 04:57:53;;;;;;;37.63;13.43;;;18.20;99.90;;;;;;4233255;28;20138;-73
2021/07/17 04:59:56;;;;;;;37.45;14.52;;;18.00;99.90;;;;;;4232014;28;20066;-72
2021/07/17 05:01:59;;;;;;;42.50;13.15;;;17.80;99.90;;;;;;4234201;28;20491;-72
2021/07/17 05:04:02;;;;;;;42.65;14.32;;;17.70;99.90;;;;;;4235541;28;20055;-73
2021/07/17 05:06:05;;;;;;;36.15;12.23;;;17.80;99.90;;;;;;4236170;28;20051;-74
2021/07/17 05:08:08;;;;;;;40.67;14.65;;;17.90;99.90;;;;;;4235844;28;20404;-74
2021/07/17 05:10:12;;;;;;;40.22;14.23;;;17.70;99.90;;;;;;4233855;28;20047;-76
2021/07/17 05:12:16;;;;;;;40.92;14.00;;;17.70;99.90;;;;;;4235342;28;20400;-74
2021/07/17 05:14:19;;;;;;;36.83;14.00;;;17.70;99.90;;;;;;4235916;28;20052;-75
2021/07/17 05:16:22;;;;;;;31.05;12.82;;;17.70;99.90;;;;;;4235442;28;20127;-76
2021/07/17 05:18:26;;;;;;;32.33;12.05;;;17.60;99.90;;;;;;4236366;28;20052;-76
2021/07/17 05:20:29;;;;;;;43.85;14.00;;;17.90;99.90;;;;;;4233720;28;20062;-74
2021/07/17 05:22:32;;;;;;;48.60;15.85;;;18.00;99.90;;;;;;4234407;28;20506;-73
2021/07/17 05:24:35;;;;;;;38.53;13.85;;;17.90;99.90;;;;;;4236345;28;20520;-77
2021/07/17 05:26:38;;;;;;;44.15;14.73;;;17.80;99.90;;;;;;4234891;28;20055;-74
2021/07/17 05:28:42;;;;;;;35.03;13.30;;;17.70;99.90;;;;;;4233194;28;20097;-76
2021/07/17 05:30:45;;;;;;;34.22;13.05;;;17.70;99.90;;;;;;4231828;28;20055;-72
2021/07/17 05:32:48;;;;;;;43.67;13.43;;;17.70;99.90;;;;;;4232080;28;20090;-74
2021/07/17 05:34:51;;;;;;;37.95;13.00;;;17.60;99.90;;;;;;4232404;28;20055;-73
2021/07/17 05:36:54;;;;;;;32.92;13.30;;;17.70;99.90;;;;;;4232133;28;20058;-73
2021/07/17 05:38:57;;;;;;;34.50;13.43;;;17.70;99.90;;;;;;4232114;28;20051;-73
2021/07/17 05:41:00;;;;;;;40.47;13.88;;;17.60;99.90;;;;;;4232525;28;20051;-73
2021/07/17 05:43:04;;;;;;;41.38;14.45;;;17.50;99.90;;;;;;4233248;28;20052;-74
2021/07/17 05:45:09;;;;;;;43.72;14.88;;;17.70;99.90;;;;;;4232281;28;20226;-72
2021/07/17 05:47:12;;;;;;;36.22;13.52;;;17.50;99.90;;;;;;4231491;28;20058;-73
2021/07/17 05:49:15;;;;;;;36.17;12.50;;;17.80;99.90;;;;;;4231160;28;20069;-73
2021/07/17 05:51:18;;;;;;;36.30;13.93;;;18.00;99.90;;;;;;4230915;28;20415;-73
2021/07/17 05:53:22;;;;;;;38.90;13.95;;;17.80;99.90;;;;;;4231395;28;20373;-73
2021/07/17 05:55:25;;;;;;;43.33;14.77;;;17.70;99.90;;;;;;4231833;28;20062;-73
2021/07/17 05:57:28;;;;;;;45.30;15.57;;;17.90;99.90;;;;;;4231235;28;20060;-73
2021/07/17 05:59:31;;;;;;;47.72;15.60;;;17.70;99.90;;;;;;4230971;28;20055;-72
2021/07/17 06:01:35;;;;;;;42.28;15.10;;;17.80;99.90;;;;;;4230784;28;20062;-73
2021/07/17 06:03:42;;;;;;;39.70;14.85;;;17.80;99.90;;;;;;4230954;28;20504;-73
2021/07/17 06:05:46;;;;;;;29.88;15.57;;;17.80;99.90;;;;;;4231140;28;20464;-73
2021/07/17 06:07:49;;;;;;;41.15;16.40;;;17.60;99.90;;;;;;4231381;28;20058;-73
2021/07/17 06:09:52;;;;;;;50.83;17.92;;;17.60;99.90;;;;;;4230708;28;20055;-73
2021/07/17 06:11:55;;;;;;;42.17;15.82;;;17.70;99.90;;;;;;4230967;28;20056;-73
2021/07/17 06:13:59;;;;;;;45.10;17.15;;;17.80;99.90;;;;;;4232512;28;20079;-73
2021/07/17 06:16:02;;;;;;;40.70;17.00;;;17.70;99.90;;;;;;4232323;28;20052;-72
2021/07/17 06:18:06;;;;;;;44.80;17.05;;;17.70;99.90;;;;;;4232127;28;20531;-73
2021/07/17 06:20:10;;;;;;;52.50;17.23;;;17.70;99.90;;;;;;4232175;28;20109;-73
2021/07/17 06:22:14;;;;;;;40.15;18.00;;;17.80;99.90;;;;;;4231745;28;20138;-73
2021/07/17 06:24:16;;;;;;;41.55;17.88;;;17.90;99.90;;;;;;4231914;28;20446;-73
2021/07/17 06:26:19;;;;;;;39.35;17.42;;;17.90;99.90;;;;;;4232291;28;20062;-74
2021/07/17 06:28:23;;;;;;;48.90;19.98;;;18.00;99.90;;;;;;4231775;28;20060;-74
2021/07/17 06:30:26;;;;;;;39.85;18.92;;;17.80;99.90;;;;;;4231479;28;20069;-73
2021/07/17 06:32:29;;;;;;;51.97;19.02;;;17.90;99.90;;;;;;4213665;28;20052;-73
2021/07/17 06:34:34;;;;;;;41.20;17.75;;;18.00;99.90;;;;;;4230955;28;20442;-73
2021/07/17 06:36:37;;;;;;;40.95;17.58;;;18.20;99.90;;;;;;4230822;28;20518;-73
2021/07/17 06:38:40;;;;;;;38.40;19.27;;;18.30;99.90;;;;;;4230494;28;20056;-73
2021/07/17 06:40:43;;;;;;;41.80;18.20;;;18.40;99.90;;;;;;4231215;28;20112;-74
2021/07/17 06:42:47;;;;;;;38.20;18.35;;;18.60;99.90;;;;;;4230852;28;20496;-74
2021/07/17 06:44:50;;;;;;;51.75;18.40;;;18.70;99.90;;;;;;4230709;28;20043;-73
2021/07/17 06:46:57;;;;;;;40.78;18.70;;;18.80;99.90;;;;;;4230864;28;20051;-74
2021/07/17 06:49:00;;;;;;;42.53;18.77;;;18.80;99.90;;;;;;4230842;28;20055;-76
2021/07/17 06:51:04;;;;;;;55.63;20.35;;;18.80;99.90;;;;;;4231007;28;20400;-74
2021/07/17 06:53:10;;;;;;;42.17;19.83;;;18.70;99.90;;;;;;4230704;28;20497;-73
2021/07/17 06:55:13;;;;;;;43.80;20.38;;;18.80;99.90;;;;;;4230519;28;20438;-74
2021/07/17 06:57:16;;;;;;;44.65;19.80;;;18.90;99.90;;;;;;4230850;28;20067;-73
2021/07/17 06:59:19;;;;;;;42.47;19.27;;;18.90;99.90;;;;;;4230316;28;20063;-73
2021/07/17 07:01:23;;;;;;;38.20;18.77;;;18.90;99.90;;;;;;4230393;28;20059;-73
2021/07/17 07:03:26;;;;;;;35.30;17.70;;;19.00;99.90;;;;;;4230100;28;20052;-73
2021/07/17 07:05:30;;;;;;;35.88;17.90;;;18.90;99.90;;;;;;4229829;28;20138;-72
2021/07/17 07:07:34;;;;;;;45.67;21.25;;;19.10;99.90;;;;;;4229998;28;20373;-72
2021/07/17 07:09:37;;;;;;;41.33;18.10;;;18.70;99.90;;;;;;4229902;28;20047;-71
2021/07/17 07:11:40;;;;;;;47.15;17.50;;;18.70;99.90;;;;;;4230590;28;20056;-73
2021/07/17 07:13:43;;;;;;;45.00;17.85;;;18.90;99.90;;;;;;4231436;28;20528;-74
2021/07/17 07:15:46;;;;;;;37.60;18.55;;;19.10;99.90;;;;;;4231528;28;20139;-73
2021/07/17 07:17:49;;;;;;;42.38;19.35;;;19.20;99.90;;;;;;4230137;28;20064;-73
2021/07/17 07:19:52;;;;;;;41.60;19.15;;;19.20;99.90;;;;;;4230496;28;20064;-74
2021/07/17 07:21:55;;;;;;;48.65;18.92;;;19.00;99.90;;;;;;4229845;28;20125;-73
2021/07/17 07:24:00;;;;;;;39.00;17.80;;;19.20;99.90;;;;;;4230134;28;20421;-75
2021/07/17 07:26:03;;;;;;;38.35;18.92;;;19.30;99.90;;;;;;4230002;28;20051;-73
2021/07/17 07:28:06;;;;;;;35.53;18.92;;;19.30;99.90;;;;;;4230192;28;20052;-73
2021/07/17 07:30:10;;;;;;;42.08;18.67;;;19.20;99.90;;;;;;4229945;28;20060;-74
2021/07/17 07:32:28;;;;;;;35.47;18.58;;;19.30;99.90;;;;;;4230166;28;20415;-74
2021/07/17 07:34:31;;;;;;;41.22;19.13;;;19.30;99.90;;;;;;4230175;28;20124;-73
2021/07/17 07:36:34;;;;;;;43.92;19.33;;;19.20;99.90;;;;;;4230309;28;20067;-74
2021/07/17 07:38:37;;;;;;;37.33;18.23;;;19.10;99.90;;;;;;4232052;28;20507;-73
2021/07/17 07:40:42;;;;;;;38.13;18.60;;;19.30;99.90;;;;;;4230075;28;20067;-74
2021/07/17 07:42:45;;;;;;;36.22;18.33;;;19.40;99.90;;;;;;4212162;28;20138;-73
2021/07/17 07:44:48;;;;;;;37.25;18.25;;;19.50;99.90;;;;;;4230702;28;20056;-75
2021/07/17 07:46:53;;;;;;;34.65;17.55;;;19.50;99.90;;;;;;4233285;28;20056;-75
2021/07/17 07:48:56;;;;;;;34.67;16.77;;;19.70;99.90;;;;;;4232034;28;20108;-77
2021/07/17 07:50:59;;;;;;;41.35;17.80;;;19.60;99.90;;;;;;4233115;28;20060;-76
2021/07/17 07:53:03;;;;;;;35.47;16.98;;;19.60;99.90;;;;;;4232231;28;20051;-74
2021/07/17 07:55:08;;;;;;;43.50;17.65;;;19.50;99.90;;;;;;4230337;28;20431;-76
2021/07/17 07:57:12;;;;;;;40.35;18.08;;;19.70;99.90;;;;;;4230925;28;20051;-76
2021/07/17 07:59:16;;;;;;;36.10;16.42;;;19.50;99.90;;;;;;4230051;28;20047;-75
2021/07/17 08:01:19;;;;;;;36.63;16.30;;;19.80;99.90;;;;;;4230056;28;20047;-76
2021/07/17 08:03:22;;;;;;;38.10;18.48;;;19.90;99.90;;;;;;4228466;28;20070;-75
2021/07/17 08:05:25;;;;;;;36.47;17.15;;;19.90;99.90;;;;;;4230812;28;20048;-75
2021/07/17 08:07:28;;;;;;;39.67;17.35;;;20.00;99.90;;;;;;4229334;28;20131;-75
2021/07/17 08:09:32;;;;;;;39.83;17.92;;;19.80;99.90;;;;;;4227986;28;20440;-73
2021/07/17 08:11:36;;;;;;;36.35;16.73;;;19.80;99.90;;;;;;4227826;28;20060;-74
2021/07/17 08:13:40;;;;;;;43.10;17.45;;;19.80;99.90;;;;;;4227476;28;20051;-73
2021/07/17 08:15:43;;;;;;;41.10;16.80;;;19.80;99.90;;;;;;4227831;28;20062;-73
2021/07/17 08:17:46;;;;;;;32.33;15.55;;;20.00;99.90;;;;;;4228585;28;20059;-74
2021/07/17 08:19:49;;;;;;;46.13;16.65;;;20.10;99.90;;;;;;4229287;28;20500;-73
2021/07/17 08:21:52;;;;;;;35.80;16.20;;;20.20;99.90;;;;;;4229510;28;20064;-74
2021/07/17 08:23:56;;;;;;;38.97;16.17;;;20.40;99.90;;;;;;4229086;28;20059;-73
2021/07/17 08:25:59;;;;;;;33.95;15.40;;;20.50;99.90;;;;;;4229179;28;20059;-73
2021/07/17 08:28:02;;;;;;;37.13;15.40;;;20.70;99.90;;;;;;4229370;28;20241;-74
2021/07/17 08:30:10;;;;;;;34.63;15.93;;;21.00;99.90;;;;;;4230296;28;20062;-76
2021/07/17 08:32:29;;;;;;;31.70;14.95;;;21.10;99.90;;;;;;4230101;28;20056;-73
2021/07/17 08:34:32;;;;;;;38.78;15.90;;;21.20;99.90;;;;;;4233113;28;20515;-73
2021/07/17 08:36:35;;;;;;;42.40;16.15;;;21.30;99.90;;;;;;4233907;28;20059;-73
2021/07/17 08:38:38;;;;;;;39.38;17.60;;;21.20;99.90;;;;;;4233186;28;20056;-74
2021/07/17 08:40:48;;;;;;;51.20;15.20;;;21.10;99.80;;;;;;4233298;28;20058;-74
2021/07/17 08:42:52;;;;;;;36.10;15.52;;;21.10;99.90;;;;;;4233041;28;20059;-74
2021/07/17 08:44:55;;;;;;;38.97;15.75;;;21.10;99.90;;;;;;4232387;28;20059;-73
2021/07/17 08:47:02;;;;;;;37.08;15.73;;;21.00;99.90;;;;;;4235816;28;20211;-75
2021/07/17 08:49:05;;;;;;;34.72;14.02;;;21.30;99.90;;;;;;4235737;28;20426;-75
2021/07/17 08:51:08;;;;;;;35.83;15.15;;;21.20;99.90;;;;;;4236150;28;20059;-75
2021/07/17 08:53:14;;;;;;;34.50;14.63;;;21.40;99.80;;;;;;4235082;28;20059;-74
2021/07/17 08:55:19;;;;;;;35.35;15.15;;;21.60;99.70;;;;;;4229350;27;20624;-74
2021/07/17 08:57:22;;;;;;;30.70;13.52;;;21.50;99.60;;;;;;4240733;27;20059;-73
2021/07/17 08:59:26;;;;;;;43.50;16.02;;;21.70;99.80;;;;;;4244851;27;20039;-76
2021/07/17 09:01:30;;;;;;;33.72;14.63;;;21.50;99.40;;;;;;4240284;27;20050;-74
2021/07/17 09:03:36;;;;;;;36.72;14.95;;;21.50;99.70;;;;;;4221038;28;20131;-72
2021/07/17 09:05:44;;;;;;;32.20;14.90;;;21.30;99.80;;;;;;4231401;27;20623;-73
2021/07/17 09:07:48;;;;;;;30.40;13.82;;;21.20;99.80;;;;;;4250467;27;20067;-74
2021/07/17 09:09:51;;;;;;;35.42;15.32;;;21.40;99.90;;;;;;4251145;27;20047;-73
2021/07/17 09:11:54;;;;;;;39.38;13.45;;;21.40;99.70;;;;;;4239801;27;20059;-74
2021/07/17 09:13:58;;;;;;;35.03;13.68;;;21.30;99.80;;;;;;4233745;28;20058;-74
2021/07/17 09:16:03;;;;;;;34.67;14.85;;;21.50;99.40;;;;;;4233619;28;20056;-75
2021/07/17 09:18:08;;;;;;;35.88;14.68;;;21.50;99.50;;;;;;4232677;28;20526;-73
2021/07/17 09:20:12;;;;;;;35.47;14.00;;;21.40;99.40;;;;;;4231346;28;20157;-74
2021/07/17 09:22:30;;;;;;;37.40;15.70;;;21.80;99.40;;;;;;4232750;28;20523;-74
2021/07/17 09:24:33;;;;;;;32.58;14.23;;;21.50;99.30;;;;;;4246450;27;20059;-74
2021/07/17 09:26:39;;;;;;;35.13;14.73;;;21.60;99.40;;;;;;4249815;27;20055;-74
2021/07/17 09:28:43;;;;;;;37.20;14.88;;;21.80;99.30;;;;;;4239680;27;20132;-75
2021/07/17 09:30:46;;;;;;;42.80;15.13;;;21.70;99.10;;;;;;4233648;28;20508;-74
2021/07/17 09:32:56;;;;;;;34.80;14.18;;;21.80;98.90;;;;;;4214084;28;20508;-73
2021/07/17 09:35:19;;;;;;;41.30;15.40;;;22.00;98.70;;;;;;4232737;28;20052;-74
2021/07/17 09:37:23;;;;;;;34.63;14.25;;;22.00;98.80;;;;;;4232215;28;20055;-73
2021/07/17 09:39:28;;;;;;;34.10;13.40;;;22.00;99.00;;;;;;4232347;28;20055;-75
2021/07/17 09:41:31;;;;;;;33.60;13.07;;;22.20;98.70;;;;;;4214367;28;20052;-74
2021/07/17 09:43:37;;;;;;;47.08;13.88;;;22.40;98.40;;;;;;4231818;28;20056;-74
2021/07/17 09:45:41;;;;;;;34.00;13.27;;;22.30;97.40;;;;;;4213941;28;20056;-75
2021/07/17 09:47:44;;;;;;;32.30;14.10;;;22.30;97.30;;;;;;4231509;28;20083;-73
2021/07/17 09:49:47;;;;;;;33.83;13.20;;;22.30;97.70;;;;;;4230446;28;20069;-74
2021/07/17 09:54:17;;;;;;;31.02;12.75;;;22.20;97.40;;;;;;4297845;27;20101;-72
2021/07/17 09:56:23;;;;;;;29.30;12.48;;;22.30;97.20;;;;;;4260164;27;20077;-74
2021/07/17 09:58:31;;;;;;;33.30;13.32;;;22.20;97.40;;;;;;4277942;27;20046;-74
2021/07/17 10:00:34;;;;;;;28.65;13.77;;;22.20;97.40;;;;;;4278670;27;20170;-74
2021/07/17 10:02:39;;;;;;;33.72;13.07;;;22.20;97.50;;;;;;4278086;27;20133;-74
2021/07/17 10:04:51;;;;;;;28.85;12.55;;;22.10;97.30;;;;;;4278014;27;20135;-74
2021/07/17 10:07:01;;;;;;;34.63;13.35;;;22.20;97.70;;;;;;4277747;27;20499;-74
2021/07/17 10:09:07;;;;;;;30.80;12.82;;;22.30;97.40;;;;;;4277749;27;20050;-74
2021/07/17 10:11:11;;;;;;;31.95;13.13;;;22.60;97.60;;;;;;4277480;27;20077;-74
2021/07/17 10:13:25;;;;;;;33.78;13.60;;;22.60;96.80;;;;;;4277912;27;20387;-74
2021/07/17 10:15:31;;;;;;;38.58;13.60;;;22.40;97.30;;;;;;4258800;27;20055;-73
2021/07/17 10:17:36;;;;;;;34.85;13.73;;;22.50;97.10;;;;;;4278429;27;20061;-72
2021/07/17 10:19:42;;;;;;;39.85;12.55;;;22.40;97.00;;;;;;4278068;27;20440;-71
2021/07/17 10:21:46;;;;;;;31.27;12.63;;;22.60;97.30;;;;;;4278710;27;20061;-73
2021/07/17 10:23:50;;;;;;;36.37;13.27;;;22.60;96.80;;;;;;4278936;27;20875;-72
2021/07/17 10:25:53;;;;;;;31.15;12.40;;;22.50;96.70;;;;;;4278796;27;20473;-74
2021/07/17 10:27:57;;;;;;;25.50;11.63;;;22.50;96.60;;;;;;4279159;27;20054;-73
2021/07/17 10:30:01;;;;;;;29.38;13.10;;;22.70;97.00;;;;;;4283024;27;20612;-73
2021/07/17 10:32:04;;;;;;;29.55;14.25;;;22.70;96.80;;;;;;4282829;27;20073;-73